sensor_id;sensor_type;location;lat;lon;timestamp;P1;durP1;ratioP1;P2;durP2;ratioP2
55270;SDS011;41132;47.162;9.470;2022-09-01T00:02:13;5.90;;;3.05;;
55270;SDS011;41132;47.162;9.470;2022-09-01T00:04:40;7.82;;;3.03;;
55270;SDS011;41132;47.162;9.470;2022-09-01T00:07:08;6.18;;;2.75;;
55270;SDS011;41132;47.162;9.470;2022-09-01T00:09:34;5.40;;;2.90;;
55270;SDS011;41132;47.162;9.470;2022-09-01T00:12:00;6.97;;;3.05;;
55270;SDS011;41132;47.162;9.470;2022-09-01T00:14:29;8.85;;;3.80;;
55270;SDS011;41132;47.162;9.470;2022-09-01T00:16:58;6.72;;;3.35;;
55270;SDS011;41132;47.162;9.470;2022-09-01T00:19:25;5.55;;;3.33;;
55270;SDS011;41132;47.162;9.470;2022-09-01T00:21:51;6.65;;;3.38;;
55270;SDS011;41132;47.162;9.470;2022-09-01T00:24:17;7.00;;;3.45;;
55270;SDS011;41132;47.162;9.470;2022-09-01T00:26:43;8.48;;;3.35;;
55270;SDS011;41132;47.162;9.470;2022-09-01T00:29:10;7.25;;;3.72;;
55270;SDS011;41132;47.162;9.470;2022-09-01T00:31:35;5.82;;;3.10;;
55270;SDS011;41132;47.162;9.470;2022-09-01T00:34:00;7.05;;;3.53;;
55270;SDS011;41132;47.162;9.470;2022-09-01T00:36:26;7.00;;;3.63;;
55270;SDS011;41132;47.162;9.470;2022-09-01T00:38:52;6.32;;;3.65;;
55270;SDS011;41132;47.162;9.470;2022-09-01T00:41:20;6.70;;;3.40;;
55270;SDS011;41132;47.162;9.470;2022-09-01T00:43:51;5.70;;;3.33;;
55270;SDS011;41132;47.162;9.470;2022-09-01T00:48:46;7.53;;;3.47;;
55270;SDS011;41132;47.162;9.470;2022-09-01T00:51:17;5.60;;;3.30;;
55270;SDS011;41132;47.162;9.470;2022-09-01T00:53:42;5.28;;;3.13;;
55270;SDS011;41132;47.162;9.470;2022-09-01T00:56:09;6.75;;;3.53;;
55270;SDS011;41132;47.162;9.470;2022-09-01T00:58:36;6.50;;;3.67;;
55270;SDS011;41132;47.162;9.470;2022-09-01T01:01:04;8.35;;;3.67;;
55270;SDS011;41132;47.162;9.470;2022-09-01T01:03:30;6.32;;;3.70;;
55270;SDS011;41132;47.162;9.470;2022-09-01T01:05:56;6.60;;;3.55;;
55270;SDS011;41132;47.162;9.470;2022-09-01T01:08:29;5.40;;;3.30;;
55270;SDS011;41132;47.162;9.470;2022-09-01T01:10:58;8.73;;;3.80;;
55270;SDS011;41132;47.162;9.470;2022-09-01T01:13:26;8.20;;;3.58;;
55270;SDS011;41132;47.162;9.470;2022-09-01T01:15:55;7.78;;;3.40;;
55270;SDS011;41132;47.162;9.470;2022-09-01T01:18:20;6.40;;;3.35;;
55270;SDS011;41132;47.162;9.470;2022-09-01T01:20:45;6.68;;;3.85;;
55270;SDS011;41132;47.162;9.470;2022-09-01T01:23:43;6.38;;;3.58;;
55270;SDS011;41132;47.162;9.470;2022-09-01T01:26:15;6.25;;;3.30;;
55270;SDS011;41132;47.162;9.470;2022-09-01T01:28:42;5.75;;;3.28;;
55270;SDS011;41132;47.162;9.470;2022-09-01T01:31:15;5.95;;;3.20;;
55270;SDS011;41132;47.162;9.470;2022-09-01T01:36:12;6.13;;;3.20;;
55270;SDS011;41132;47.162;9.470;2022-09-01T01:38:41;5.75;;;3.33;;
55270;SDS011;41132;47.162;9.470;2022-09-01T01:41:11;6.60;;;3.83;;
55270;SDS011;41132;47.162;9.470;2022-09-01T01:43:38;5.78;;;3.13;;
55270;SDS011;41132;47.162;9.470;2022-09-01T01:46:05;6.05;;;3.25;;
55270;SDS011;41132;47.162;9.470;2022-09-01T01:48:35;5.80;;;3.40;;
55270;SDS011;41132;47.162;9.470;2022-09-01T01:51:03;5.93;;;3.50;;
55270;SDS011;41132;47.162;9.470;2022-09-01T01:53:30;8.20;;;3.63;;
55270;SDS011;41132;47.162;9.470;2022-09-01T01:55:56;10.00;;;3.25;;
55270;SDS011;41132;47.162;9.470;2022-09-01T01:58:23;5.95;;;3.55;;
55270;SDS011;41132;47.162;9.470;2022-09-01T02:00:50;5.95;;;3.47;;
55270;SDS011;41132;47.162;9.470;2022-09-01T02:03:18;7.85;;;3.67;;
55270;SDS011;41132;47.162;9.470;2022-09-01T02:05:46;6.53;;;3.47;;
55270;SDS011;41132;47.162;9.470;2022-09-01T02:08:13;6.47;;;3.78;;
55270;SDS011;41132;47.162;9.470;2022-09-01T02:10:41;7.22;;;4.22;;
55270;SDS011;41132;47.162;9.470;2022-09-01T02:13:09;8.52;;;3.70;;
55270;SDS011;41132;47.162;9.470;2022-09-01T02:15:41;6.80;;;3.67;;
55270;SDS011;41132;47.162;9.470;2022-09-01T02:18:16;6.28;;;3.28;;
55270;SDS011;41132;47.162;9.470;2022-09-01T02:20:44;5.93;;;3.08;;
55270;SDS011;41132;47.162;9.470;2022-09-01T02:23:12;5.72;;;3.80;;
55270;SDS011;41132;47.162;9.470;2022-09-01T02:25:40;5.25;;;3.10;;
55270;SDS011;41132;47.162;9.470;2022-09-01T02:28:08;5.97;;;4.05;;
55270;SDS011;41132;47.162;9.470;2022-09-01T02:30:40;6.47;;;3.80;;
55270;SDS011;41132;47.162;9.470;2022-09-01T02:33:12;6.93;;;3.80;;
55270;SDS011;41132;47.162;9.470;2022-09-01T02:35:50;7.10;;;3.90;;
55270;SDS011;41132;47.162;9.470;2022-09-01T02:38:18;7.07;;;3.70;;
55270;SDS011;41132;47.162;9.470;2022-09-01T02:40:45;6.88;;;3.90;;
55270;SDS011;41132;47.162;9.470;2022-09-01T02:43:11;7.30;;;3.83;;
55270;SDS011;41132;47.162;9.470;2022-09-01T02:45:40;6.53;;;3.65;;
55270;SDS011;41132;47.162;9.470;2022-09-01T02:48:08;6.70;;;3.92;;
55270;SDS011;41132;47.162;9.470;2022-09-01T02:50:35;6.35;;;3.30;;
55270;SDS011;41132;47.162;9.470;2022-09-01T02:53:01;7.93;;;3.95;;
55270;SDS011;41132;47.162;9.470;2022-09-01T02:55:30;6.97;;;3.90;;
55270;SDS011;41132;47.162;9.470;2022-09-01T02:57:56;7.18;;;3.97;;
55270;SDS011;41132;47.162;9.470;2022-09-01T03:00:22;5.80;;;3.65;;
55270;SDS011;41132;47.162;9.470;2022-09-01T03:02:57;5.72;;;3.60;;
55270;SDS011;41132;47.162;9.470;2022-09-01T03:05:25;5.40;;;3.30;;
55270;SDS011;41132;47.162;9.470;2022-09-01T03:07:55;5.55;;;3.40;;
55270;SDS011;41132;47.162;9.470;2022-09-01T03:10:29;9.35;;;3.65;;
55270;SDS011;41132;47.162;9.470;2022-09-01T03:13:02;8.07;;;3.63;;
55270;SDS011;41132;47.162;9.470;2022-09-01T03:15:30;5.72;;;3.28;;
55270;SDS011;41132;47.162;9.470;2022-09-01T03:17:58;5.32;;;3.17;;
55270;SDS011;41132;47.162;9.470;2022-09-01T03:20:25;6.10;;;3.08;;
55270;SDS011;41132;47.162;9.470;2022-09-01T03:22:52;5.75;;;3.30;;
55270;SDS011;41132;47.162;9.470;2022-09-01T03:25:17;5.78;;;2.88;;
55270;SDS011;41132;47.162;9.470;2022-09-01T03:27:43;8.07;;;3.40;;
55270;SDS011;41132;47.162;9.470;2022-09-01T03:30:09;7.72;;;3.88;;
55270;SDS011;41132;47.162;9.470;2022-09-01T03:32:35;8.70;;;3.67;;
55270;SDS011;41132;47.162;9.470;2022-09-01T03:35:01;6.22;;;3.83;;
55270;SDS011;41132;47.162;9.470;2022-09-01T03:37:27;6.82;;;3.47;;
55270;SDS011;41132;47.162;9.470;2022-09-01T03:39:52;7.15;;;3.38;;
55270;SDS011;41132;47.162;9.470;2022-09-01T03:42:19;6.85;;;3.33;;
55270;SDS011;41132;47.162;9.470;2022-09-01T03:44:50;7.10;;;3.22;;
55270;SDS011;41132;47.162;9.470;2022-09-01T03:47:16;5.65;;;3.15;;
55270;SDS011;41132;47.162;9.470;2022-09-01T03:49:42;7.20;;;3.10;;
55270;SDS011;41132;47.162;9.470;2022-09-01T03:52:08;7.30;;;3.25;;
55270;SDS011;41132;47.162;9.470;2022-09-01T03:54:36;5.25;;;2.60;;
55270;SDS011;41132;47.162;9.470;2022-09-01T03:57:02;4.65;;;2.70;;
55270;SDS011;41132;47.162;9.470;2022-09-01T03:59:30;5.80;;;3.40;;
55270;SDS011;41132;47.162;9.470;2022-09-01T04:01:56;6.57;;;3.45;;
55270;SDS011;41132;47.162;9.470;2022-09-01T04:04:22;7.93;;;3.58;;
55270;SDS011;41132;47.162;9.470;2022-09-01T04:06:47;5.85;;;3.67;;
55270;SDS011;41132;47.162;9.470;2022-09-01T04:09:13;10.57;;;3.58;;
55270;SDS011;41132;47.162;9.470;2022-09-01T04:11:38;7.13;;;3.90;;
55270;SDS011;41132;47.162;9.470;2022-09-01T04:14:06;5.68;;;3.03;;
55270;SDS011;41132;47.162;9.470;2022-09-01T04:16:34;6.32;;;3.53;;
55270;SDS011;41132;47.162;9.470;2022-09-01T04:19:20;7.63;;;3.60;;
55270;SDS011;41132;47.162;9.470;2022-09-01T04:21:58;6.60;;;3.53;;
55270;SDS011;41132;47.162;9.470;2022-09-01T04:24:25;7.10;;;3.53;;
55270;SDS011;41132;47.162;9.470;2022-09-01T04:26:55;5.75;;;3.53;;
55270;SDS011;41132;47.162;9.470;2022-09-01T04:29:23;5.90;;;3.22;;
55270;SDS011;41132;47.162;9.470;2022-09-01T04:31:51;5.18;;;2.83;;
55270;SDS011;41132;47.162;9.470;2022-09-01T04:34:18;5.55;;;3.20;;
55270;SDS011;41132;47.162;9.470;2022-09-01T04:36:48;5.03;;;2.70;;
55270;SDS011;41132;47.162;9.470;2022-09-01T04:39:17;5.63;;;3.00;;
55270;SDS011;41132;47.162;9.470;2022-09-01T04:41:43;6.15;;;3.13;;
55270;SDS011;41132;47.162;9.470;2022-09-01T04:44:10;6.68;;;2.88;;
55270;SDS011;41132;47.162;9.470;2022-09-01T04:46:37;6.40;;;3.20;;
55270;SDS011;41132;47.162;9.470;2022-09-01T04:49:07;6.53;;;3.38;;
55270;SDS011;41132;47.162;9.470;2022-09-01T04:51:41;7.05;;;3.70;;
55270;SDS011;41132;47.162;9.470;2022-09-01T04:54:10;6.53;;;4.07;;
55270;SDS011;41132;47.162;9.470;2022-09-01T04:56:42;7.95;;;4.43;;
55270;SDS011;41132;47.162;9.470;2022-09-01T04:59:10;8.35;;;4.65;;
55270;SDS011;41132;47.162;9.470;2022-09-01T05:01:37;6.75;;;4.10;;
55270;SDS011;41132;47.162;9.470;2022-09-01T05:04:10;7.45;;;4.38;;
55270;SDS011;41132;47.162;9.470;2022-09-01T05:06:42;7.13;;;4.30;;
55270;SDS011;41132;47.162;9.470;2022-09-01T05:09:09;7.18;;;4.15;;
55270;SDS011;41132;47.162;9.470;2022-09-01T05:11:37;11.60;;;3.78;;
55270;SDS011;41132;47.162;9.470;2022-09-01T05:14:04;7.18;;;3.90;;
55270;SDS011;41132;47.162;9.470;2022-09-01T05:16:31;6.47;;;3.78;;
55270;SDS011;41132;47.162;9.470;2022-09-01T05:18:58;6.88;;;4.22;;
55270;SDS011;41132;47.162;9.470;2022-09-01T05:21:25;6.57;;;4.13;;
55270;SDS011;41132;47.162;9.470;2022-09-01T05:23:53;7.43;;;3.95;;
55270;SDS011;41132;47.162;9.470;2022-09-01T05:26:26;7.43;;;4.03;;
55270;SDS011;41132;47.162;9.470;2022-09-01T05:28:56;10.23;;;4.10;;
55270;SDS011;41132;47.162;9.470;2022-09-01T05:31:24;6.60;;;4.00;;
55270;SDS011;41132;47.162;9.470;2022-09-01T05:33:52;6.25;;;3.85;;
55270;SDS011;41132;47.162;9.470;2022-09-01T05:36:20;5.97;;;3.15;;
55270;SDS011;41132;47.162;9.470;2022-09-01T05:38:47;7.82;;;3.70;;
55270;SDS011;41132;47.162;9.470;2022-09-01T05:41:15;7.43;;;3.38;;
55270;SDS011;41132;47.162;9.470;2022-09-01T05:43:42;8.57;;;3.45;;
55270;SDS011;41132;47.162;9.470;2022-09-01T05:46:13;6.38;;;3.38;;
55270;SDS011;41132;47.162;9.470;2022-09-01T05:48:41;6.47;;;3.22;;
55270;SDS011;41132;47.162;9.470;2022-09-01T05:51:08;6.70;;;3.33;;
55270;SDS011;41132;47.162;9.470;2022-09-01T05:53:34;10.68;;;3.33;;
55270;SDS011;41132;47.162;9.470;2022-09-01T05:56:00;5.85;;;3.80;;
55270;SDS011;41132;47.162;9.470;2022-09-01T05:58:31;6.80;;;3.15;;
55270;SDS011;41132;47.162;9.470;2022-09-01T06:00:57;6.50;;;3.72;;
55270;SDS011;41132;47.162;9.470;2022-09-01T06:03:23;10.32;;;3.78;;
55270;SDS011;41132;47.162;9.470;2022-09-01T06:05:51;7.28;;;3.72;;
55270;SDS011;41132;47.162;9.470;2022-09-01T06:08:19;6.97;;;4.57;;
55270;SDS011;41132;47.162;9.470;2022-09-01T06:10:45;8.05;;;4.70;;
55270;SDS011;41132;47.162;9.470;2022-09-01T06:13:12;8.30;;;4.85;;
55270;SDS011;41132;47.162;9.470;2022-09-01T06:15:40;7.45;;;4.43;;
55270;SDS011;41132;47.162;9.470;2022-09-01T06:18:07;7.30;;;4.50;;
55270;SDS011;41132;47.162;9.470;2022-09-01T06:20:39;10.23;;;4.10;;
55270;SDS011;41132;47.162;9.470;2022-09-01T06:23:07;7.70;;;4.10;;
55270;SDS011;41132;47.162;9.470;2022-09-01T06:25:35;5.95;;;3.50;;
55270;SDS011;41132;47.162;9.470;2022-09-01T06:28:01;6.22;;;3.58;;
55270;SDS011;41132;47.162;9.470;2022-09-01T06:30:28;8.68;;;3.92;;
55270;SDS011;41132;47.162;9.470;2022-09-01T06:32:54;7.88;;;3.83;;
55270;SDS011;41132;47.162;9.470;2022-09-01T06:35:22;6.65;;;4.05;;
55270;SDS011;41132;47.162;9.470;2022-09-01T06:37:53;7.40;;;3.80;;
55270;SDS011;41132;47.162;9.470;2022-09-01T06:40:20;7.18;;;4.13;;
55270;SDS011;41132;47.162;9.470;2022-09-01T06:42:49;10.00;;;3.63;;
55270;SDS011;41132;47.162;9.470;2022-09-01T06:45:17;9.90;;;4.50;;
55270;SDS011;41132;47.162;9.470;2022-09-01T06:47:44;11.32;;;4.15;;
55270;SDS011;41132;47.162;9.470;2022-09-01T06:50:11;6.53;;;4.03;;
55270;SDS011;41132;47.162;9.470;2022-09-01T06:52:42;5.97;;;3.78;;
55270;SDS011;41132;47.162;9.470;2022-09-01T06:55:09;7.18;;;4.60;;
55270;SDS011;41132;47.162;9.470;2022-09-01T06:57:36;6.70;;;4.03;;
55270;SDS011;41132;47.162;9.470;2022-09-01T07:00:06;8.70;;;4.78;;
55270;SDS011;41132;47.162;9.470;2022-09-01T07:02:41;7.32;;;4.50;;
55270;SDS011;41132;47.162;9.470;2022-09-01T07:05:08;8.65;;;5.32;;
55270;SDS011;41132;47.162;9.470;2022-09-01T07:07:34;6.97;;;4.72;;
55270;SDS011;41132;47.162;9.470;2022-09-01T07:10:00;7.25;;;4.85;;
55270;SDS011;41132;47.162;9.470;2022-09-01T07:12:25;6.75;;;4.38;;
55270;SDS011;41132;47.162;9.470;2022-09-01T07:14:50;7.68;;;4.93;;
55270;SDS011;41132;47.162;9.470;2022-09-01T07:17:16;7.30;;;4.93;;
55270;SDS011;41132;47.162;9.470;2022-09-01T07:19:43;7.25;;;4.93;;
55270;SDS011;41132;47.162;9.470;2022-09-01T07:22:09;8.32;;;4.85;;
55270;SDS011;41132;47.162;9.470;2022-09-01T07:24:34;7.38;;;4.82;;
55270;SDS011;41132;47.162;9.470;2022-09-01T07:27:00;7.00;;;4.85;;
55270;SDS011;41132;47.162;9.470;2022-09-01T07:29:25;7.03;;;4.82;;
55270;SDS011;41132;47.162;9.470;2022-09-01T07:31:52;8.40;;;4.53;;
55270;SDS011;41132;47.162;9.470;2022-09-01T07:34:19;9.18;;;5.50;;
55270;SDS011;41132;47.162;9.470;2022-09-01T07:36:46;9.18;;;5.70;;
55270;SDS011;41132;47.162;9.470;2022-09-01T07:39:12;7.80;;;5.10;;
55270;SDS011;41132;47.162;9.470;2022-09-01T07:41:38;7.30;;;4.50;;
55270;SDS011;41132;47.162;9.470;2022-09-01T07:44:06;6.82;;;4.68;;
55270;SDS011;41132;47.162;9.470;2022-09-01T07:46:34;9.27;;;4.93;;
55270;SDS011;41132;47.162;9.470;2022-09-01T07:49:00;9.40;;;5.43;;
55270;SDS011;41132;47.162;9.470;2022-09-01T07:51:27;7.45;;;4.68;;
55270;SDS011;41132;47.162;9.470;2022-09-01T07:53:54;7.28;;;4.85;;
55270;SDS011;41132;47.162;9.470;2022-09-01T07:56:21;10.13;;;5.25;;
55270;SDS011;41132;47.162;9.470;2022-09-01T07:58:48;6.80;;;4.97;;
55270;SDS011;41132;47.162;9.470;2022-09-01T08:01:16;6.65;;;4.70;;
55270;SDS011;41132;47.162;9.470;2022-09-01T08:03:48;8.05;;;4.85;;
55270;SDS011;41132;47.162;9.470;2022-09-01T08:06:16;9.57;;;4.80;;
55270;SDS011;41132;47.162;9.470;2022-09-01T08:08:43;8.10;;;4.93;;
55270;SDS011;41132;47.162;9.470;2022-09-01T08:11:14;7.90;;;4.90;;
55270;SDS011;41132;47.162;9.470;2022-09-01T08:13:41;8.60;;;5.05;;
55270;SDS011;41132;47.162;9.470;2022-09-01T08:16:06;8.02;;;5.05;;
55270;SDS011;41132;47.162;9.470;2022-09-01T08:18:32;7.95;;;4.93;;
55270;SDS011;41132;47.162;9.470;2022-09-01T08:20:58;7.63;;;4.65;;
55270;SDS011;41132;47.162;9.470;2022-09-01T08:23:23;7.57;;;4.75;;
55270;SDS011;41132;47.162;9.470;2022-09-01T08:25:50;9.50;;;5.10;;
55270;SDS011;41132;47.162;9.470;2022-09-01T08:28:16;10.48;;;4.88;;
55270;SDS011;41132;47.162;9.470;2022-09-01T08:30:42;7.43;;;5.05;;
55270;SDS011;41132;47.162;9.470;2022-09-01T08:33:09;7.05;;;4.50;;
55270;SDS011;41132;47.162;9.470;2022-09-01T08:35:46;7.38;;;4.38;;
55270;SDS011;41132;47.162;9.470;2022-09-01T08:38:12;6.80;;;4.43;;
55270;SDS011;41132;47.162;9.470;2022-09-01T08:40:39;6.72;;;4.32;;
55270;SDS011;41132;47.162;9.470;2022-09-01T08:50:55;7.15;;;4.47;;
55270;SDS011;41132;47.162;9.470;2022-09-01T08:53:32;6.18;;;4.07;;
55270;SDS011;41132;47.162;9.470;2022-09-01T08:56:02;5.82;;;3.47;;
55270;SDS011;41132;47.162;9.470;2022-09-01T08:58:29;7.68;;;3.53;;
55270;SDS011;41132;47.162;9.470;2022-09-01T09:00:58;6.55;;;3.20;;
55270;SDS011;41132;47.162;9.470;2022-09-01T09:03:33;5.05;;;3.00;;
55270;SDS011;41132;47.162;9.470;2022-09-01T09:06:28;5.97;;;2.80;;
55270;SDS011;41132;47.162;9.470;2022-09-01T09:09:14;5.25;;;2.85;;
55270;SDS011;41132;47.162;9.470;2022-09-01T09:11:45;6.05;;;3.22;;
55270;SDS011;41132;47.162;9.470;2022-09-01T09:14:27;6.28;;;2.90;;
55270;SDS011;41132;47.162;9.470;2022-09-01T09:17:00;7.60;;;3.20;;
55270;SDS011;41132;47.162;9.470;2022-09-01T09:19:29;6.65;;;3.83;;
55270;SDS011;41132;47.162;9.470;2022-09-01T09:21:59;6.88;;;4.05;;
55270;SDS011;41132;47.162;9.470;2022-09-01T09:24:28;6.70;;;3.72;;
55270;SDS011;41132;47.162;9.470;2022-09-01T09:27:24;6.20;;;3.30;;
55270;SDS011;41132;47.162;9.470;2022-09-01T09:29:54;6.85;;;3.60;;
55270;SDS011;41132;47.162;9.470;2022-09-01T09:32:53;5.70;;;3.33;;
55270;SDS011;41132;47.162;9.470;2022-09-01T09:37:50;5.30;;;3.15;;
55270;SDS011;41132;47.162;9.470;2022-09-01T09:40:18;7.10;;;3.60;;
55270;SDS011;41132;47.162;9.470;2022-09-01T09:47:46;5.90;;;3.28;;
55270;SDS011;41132;47.162;9.470;2022-09-01T09:50:13;5.97;;;4.03;;
55270;SDS011;41132;47.162;9.470;2022-09-01T09:55:56;6.68;;;4.28;;
55270;SDS011;41132;47.162;9.470;2022-09-01T09:58:33;5.78;;;3.70;;
55270;SDS011;41132;47.162;9.470;2022-09-01T10:01:03;9.27;;;4.07;;
55270;SDS011;41132;47.162;9.470;2022-09-01T10:03:50;7.18;;;4.05;;
55270;SDS011;41132;47.162;9.470;2022-09-01T10:06:31;6.18;;;3.85;;
55270;SDS011;41132;47.162;9.470;2022-09-01T10:09:00;8.55;;;3.60;;
55270;SDS011;41132;47.162;9.470;2022-09-01T10:11:41;6.68;;;4.47;;
55270;SDS011;41132;47.162;9.470;2022-09-01T10:14:18;6.13;;;3.38;;
55270;SDS011;41132;47.162;9.470;2022-09-01T10:16:48;5.63;;;3.30;;
55270;SDS011;41132;47.162;9.470;2022-09-01T10:19:20;5.70;;;3.15;;
55270;SDS011;41132;47.162;9.470;2022-09-01T10:21:46;6.05;;;3.58;;
55270;SDS011;41132;47.162;9.470;2022-09-01T10:24:23;6.68;;;4.30;;
55270;SDS011;41132;47.162;9.470;2022-09-01T10:27:10;6.38;;;3.38;;
55270;SDS011;41132;47.162;9.470;2022-09-01T10:29:44;9.38;;;3.75;;
55270;SDS011;41132;47.162;9.470;2022-09-01T10:32:15;6.88;;;4.25;;
55270;SDS011;41132;47.162;9.470;2022-09-01T10:34:46;6.20;;;3.70;;
55270;SDS011;41132;47.162;9.470;2022-09-01T10:37:13;6.90;;;4.03;;
55270;SDS011;41132;47.162;9.470;2022-09-01T10:42:45;6.82;;;4.00;;
55270;SDS011;41132;47.162;9.470;2022-09-01T10:47:55;7.60;;;4.72;;
55270;SDS011;41132;47.162;9.470;2022-09-01T10:50:43;6.28;;;4.07;;
55270;SDS011;41132;47.162;9.470;2022-09-01T10:53:11;7.40;;;4.65;;
55270;SDS011;41132;47.162;9.470;2022-09-01T10:56:04;7.47;;;4.60;;
55270;SDS011;41132;47.162;9.470;2022-09-01T11:04:07;7.05;;;4.05;;
55270;SDS011;41132;47.162;9.470;2022-09-01T11:06:57;7.40;;;4.70;;
55270;SDS011;41132;47.162;9.470;2022-09-01T11:09:41;7.38;;;4.80;;
55270;SDS011;41132;47.162;9.470;2022-09-01T11:17:26;7.22;;;4.65;;
55270;SDS011;41132;47.162;9.470;2022-09-01T11:19:57;8.43;;;4.80;;
55270;SDS011;41132;47.162;9.470;2022-09-01T11:31:10;6.63;;;4.50;;
55270;SDS011;41132;47.162;9.470;2022-09-01T11:33:45;8.23;;;4.63;;
55270;SDS011;41132;47.162;9.470;2022-09-01T11:38:49;6.45;;;4.65;;
55270;SDS011;41132;47.162;9.470;2022-09-01T11:41:27;6.82;;;4.63;;
55270;SDS011;41132;47.162;9.470;2022-09-01T11:43:58;6.80;;;4.43;;
55270;SDS011;41132;47.162;9.470;2022-09-01T11:46:30;7.88;;;4.55;;
55270;SDS011;41132;47.162;9.470;2022-09-01T11:48:57;8.48;;;4.65;;
55270;SDS011;41132;47.162;9.470;2022-09-01T11:51:43;6.88;;;4.32;;
55270;SDS011;41132;47.162;9.470;2022-09-01T11:54:11;7.78;;;4.47;;
55270;SDS011;41132;47.162;9.470;2022-09-01T11:56:37;6.38;;;4.35;;
55270;SDS011;41132;47.162;9.470;2022-09-01T11:59:02;7.07;;;4.60;;
55270;SDS011;41132;47.162;9.470;2022-09-01T12:03:53;8.00;;;3.90;;
55270;SDS011;41132;47.162;9.470;2022-09-01T12:06:20;7.07;;;4.40;;
55270;SDS011;41132;47.162;9.470;2022-09-01T12:08:58;6.72;;;4.28;;
55270;SDS011;41132;47.162;9.470;2022-09-01T12:11:28;8.13;;;4.13;;
55270;SDS011;41132;47.162;9.470;2022-09-01T12:16:24;6.38;;;3.63;;
55270;SDS011;41132;47.162;9.470;2022-09-01T12:18:51;6.20;;;3.80;;
55270;SDS011;41132;47.162;9.470;2022-09-01T12:21:37;7.57;;;4.25;;
55270;SDS011;41132;47.162;9.470;2022-09-01T12:26:43;8.15;;;4.82;;
55270;SDS011;41132;47.162;9.470;2022-09-01T12:29:11;8.02;;;4.70;;
55270;SDS011;41132;47.162;9.470;2022-09-01T12:31:41;6.72;;;4.38;;
55270;SDS011;41132;47.162;9.470;2022-09-01T12:37:18;6.97;;;4.00;;
55270;SDS011;41132;47.162;9.470;2022-09-01T12:39:49;6.18;;;3.47;;
55270;SDS011;41132;47.162;9.470;2022-09-01T12:44:58;7.28;;;4.90;;
55270;SDS011;41132;47.162;9.470;2022-09-01T12:49:57;6.53;;;3.92;;
55270;SDS011;41132;47.162;9.470;2022-09-01T12:52:24;5.40;;;3.20;;
55270;SDS011;41132;47.162;9.470;2022-09-01T12:55:07;5.80;;;3.13;;
55270;SDS011;41132;47.162;9.470;2022-09-01T12:57:45;6.28;;;3.22;;
55270;SDS011;41132;47.162;9.470;2022-09-01T13:00:20;6.38;;;3.67;;
55270;SDS011;41132;47.162;9.470;2022-09-01T13:03:02;6.05;;;3.72;;
55270;SDS011;41132;47.162;9.470;2022-09-01T13:05:48;6.95;;;3.60;;
55270;SDS011;41132;47.162;9.470;2022-09-01T13:08:17;6.38;;;3.70;;
55270;SDS011;41132;47.162;9.470;2022-09-01T13:10:54;5.80;;;3.22;;
55270;SDS011;41132;47.162;9.470;2022-09-01T13:13:23;5.78;;;2.80;;
55270;SDS011;41132;47.162;9.470;2022-09-01T13:15:52;5.78;;;2.70;;
55270;SDS011;41132;47.162;9.470;2022-09-01T13:18:20;5.50;;;2.72;;
55270;SDS011;41132;47.162;9.470;2022-09-01T13:20:47;6.75;;;2.65;;
55270;SDS011;41132;47.162;9.470;2022-09-01T13:23:13;6.07;;;2.60;;
55270;SDS011;41132;47.162;9.470;2022-09-01T13:25:39;7.63;;;3.50;;
55270;SDS011;41132;47.162;9.470;2022-09-01T13:28:05;7.60;;;2.67;;
55270;SDS011;41132;47.162;9.470;2022-09-01T13:30:31;5.13;;;2.60;;
55270;SDS011;41132;47.162;9.470;2022-09-01T13:32:58;4.80;;;2.47;;
55270;SDS011;41132;47.162;9.470;2022-09-01T13:35:23;5.22;;;2.65;;
55270;SDS011;41132;47.162;9.470;2022-09-01T13:37:49;4.95;;;2.50;;
55270;SDS011;41132;47.162;9.470;2022-09-01T13:40:15;4.80;;;2.33;;
55270;SDS011;41132;47.162;9.470;2022-09-01T13:42:52;5.18;;;2.50;;
55270;SDS011;41132;47.162;9.470;2022-09-01T13:45:20;5.18;;;2.67;;
55270;SDS011;41132;47.162;9.470;2022-09-01T13:47:48;5.05;;;2.90;;
55270;SDS011;41132;47.162;9.470;2022-09-01T13:50:16;7.03;;;2.78;;
55270;SDS011;41132;47.162;9.470;2022-09-01T13:52:43;5.53;;;2.92;;
55270;SDS011;41132;47.162;9.470;2022-09-01T13:55:12;4.75;;;2.30;;
55270;SDS011;41132;47.162;9.470;2022-09-01T13:57:40;5.03;;;2.67;;
55270;SDS011;41132;47.162;9.470;2022-09-01T14:00:13;5.05;;;2.63;;
55270;SDS011;41132;47.162;9.470;2022-09-01T14:02:42;5.45;;;2.55;;
55270;SDS011;41132;47.162;9.470;2022-09-01T14:05:18;4.80;;;2.55;;
55270;SDS011;41132;47.162;9.470;2022-09-01T14:07:45;8.73;;;3.80;;
55270;SDS011;41132;47.162;9.470;2022-09-01T14:10:11;6.93;;;3.45;;
55270;SDS011;41132;47.162;9.470;2022-09-01T14:12:38;5.28;;;2.78;;
55270;SDS011;41132;47.162;9.470;2022-09-01T14:15:05;5.60;;;2.60;;
55270;SDS011;41132;47.162;9.470;2022-09-01T14:17:33;4.65;;;2.45;;
55270;SDS011;41132;47.162;9.470;2022-09-01T14:20:00;4.00;;;2.10;;
55270;SDS011;41132;47.162;9.470;2022-09-01T14:22:26;7.38;;;2.47;;
55270;SDS011;41132;47.162;9.470;2022-09-01T14:24:52;4.72;;;2.30;;
55270;SDS011;41132;47.162;9.470;2022-09-01T14:27:17;4.80;;;2.45;;
55270;SDS011;41132;47.162;9.470;2022-09-01T14:29:47;5.10;;;2.70;;
55270;SDS011;41132;47.162;9.470;2022-09-01T14:32:14;4.82;;;2.30;;
55270;SDS011;41132;47.162;9.470;2022-09-01T14:34:41;6.25;;;2.42;;
55270;SDS011;41132;47.162;9.470;2022-09-01T14:37:07;4.38;;;2.13;;
55270;SDS011;41132;47.162;9.470;2022-09-01T14:39:32;5.05;;;2.15;;
55270;SDS011;41132;47.162;9.470;2022-09-01T14:41:58;5.00;;;2.33;;
55270;SDS011;41132;47.162;9.470;2022-09-01T14:44:23;4.45;;;2.30;;
55270;SDS011;41132;47.162;9.470;2022-09-01T14:46:48;5.60;;;2.47;;
55270;SDS011;41132;47.162;9.470;2022-09-01T14:49:14;5.10;;;2.35;;
55270;SDS011;41132;47.162;9.470;2022-09-01T14:51:40;4.47;;;2.15;;
55270;SDS011;41132;47.162;9.470;2022-09-01T14:54:06;4.43;;;2.25;;
55270;SDS011;41132;47.162;9.470;2022-09-01T14:56:31;4.57;;;2.50;;
55270;SDS011;41132;47.162;9.470;2022-09-01T14:58:57;5.07;;;2.70;;
55270;SDS011;41132;47.162;9.470;2022-09-01T15:01:25;5.97;;;2.60;;
55270;SDS011;41132;47.162;9.470;2022-09-01T15:03:52;5.00;;;2.50;;
55270;SDS011;41132;47.162;9.470;2022-09-01T15:06:18;4.85;;;2.50;;
55270;SDS011;41132;47.162;9.470;2022-09-01T15:08:45;5.28;;;2.70;;
55270;SDS011;41132;47.162;9.470;2022-09-01T15:11:12;5.70;;;2.38;;
55270;SDS011;41132;47.162;9.470;2022-09-01T15:13:40;5.03;;;2.45;;
55270;SDS011;41132;47.162;9.470;2022-09-01T15:16:11;4.78;;;2.40;;
55270;SDS011;41132;47.162;9.470;2022-09-01T15:18:39;4.90;;;2.40;;
55270;SDS011;41132;47.162;9.470;2022-09-01T15:21:05;4.78;;;2.20;;
55270;SDS011;41132;47.162;9.470;2022-09-01T15:23:30;6.45;;;2.30;;
55270;SDS011;41132;47.162;9.470;2022-09-01T15:25:56;5.45;;;2.28;;
55270;SDS011;41132;47.162;9.470;2022-09-01T15:28:23;5.30;;;2.60;;
55270;SDS011;41132;47.162;9.470;2022-09-01T15:30:50;7.25;;;2.60;;
55270;SDS011;41132;47.162;9.470;2022-09-01T15:33:16;5.20;;;2.35;;
55270;SDS011;41132;47.162;9.470;2022-09-01T15:35:43;7.15;;;2.63;;
55270;SDS011;41132;47.162;9.470;2022-09-01T15:38:09;5.20;;;2.30;;
55270;SDS011;41132;47.162;9.470;2022-09-01T15:40:38;6.32;;;2.40;;
55270;SDS011;41132;47.162;9.470;2022-09-01T15:43:04;6.38;;;2.70;;
55270;SDS011;41132;47.162;9.470;2022-09-01T15:45:30;4.93;;;2.35;;
55270;SDS011;41132;47.162;9.470;2022-09-01T15:47:55;4.75;;;2.28;;
55270;SDS011;41132;47.162;9.470;2022-09-01T15:50:21;5.75;;;3.25;;
55270;SDS011;41132;47.162;9.470;2022-09-01T15:52:50;6.03;;;2.30;;
55270;SDS011;41132;47.162;9.470;2022-09-01T15:55:18;4.70;;;2.30;;
55270;SDS011;41132;47.162;9.470;2022-09-01T15:57:46;5.63;;;2.55;;
55270;SDS011;41132;47.162;9.470;2022-09-01T16:00:12;5.55;;;2.55;;
55270;SDS011;41132;47.162;9.470;2022-09-01T16:02:38;4.63;;;2.15;;
55270;SDS011;41132;47.162;9.470;2022-09-01T16:05:04;4.90;;;2.33;;
55270;SDS011;41132;47.162;9.470;2022-09-01T16:07:30;4.72;;;2.50;;